aviador You're here:

KTVF Decoded Metar

THIEF RIVER in MN, USA
Report Time2017-11-24 09:01:00
UTC Time2017-11-24 09:17:38
Flight Rules vfr VFR
Wind220° at 12 kt
W.Decomp.*RWY 21: 12.0 kt HW 1.0 kt RCW
RWY 13: 1.0 kt HW 12.0 kt RCW
W.Rank220° ranks 24
Current wind is above 220° avg. (8.4)
Visibility9999 m
Phenomena:N/A
Clouds:Overcast 095 Hf
Expected CloudBase > 1,600 ft AGL from Temp-Dew spread
Ceiling9,500 ft
Temp06°C (ISA -7)
Dew Point02°C (76% RH)
AAT0.0°C
QNH991 hPa
Density Alt1,155 ft
Elevation1,115 ft
Report Wrong Elevation
Raw Report
METAR KTVF 240901Z AUTO 22012KT 10SM OVC095 06/02 A2926 RMK AO2 SLP921
T00610022 56013=

Extra information for KTVF:More info

Metar Taf Metar & Taf Last 4 Metars F.Rules Stats Wind Profile Meteogram Temp Stats Airport Information Weather charts Add Link Nearby VenuesMetar ALERT Operation Metar Decoded Social comments

AIRNAV info for KTVF